createdAt,value
2022-09-04T00:00:09.245Z,11.2
2022-09-04T00:03:09.181Z,11.1
2022-09-04T00:06:10.039Z,11.1
2022-09-04T00:09:09.226Z,11.1
2022-09-04T00:12:09.132Z,11.1
2022-09-04T00:15:09.315Z,11
2022-09-04T00:18:09.404Z,11
2022-09-04T00:21:09.177Z,11
2022-09-04T00:24:09.329Z,10.9
2022-09-04T00:27:09.942Z,10.9
2022-09-04T00:30:09.204Z,10.9
2022-09-04T00:33:09.264Z,11.1
2022-09-04T00:36:09.141Z,11.1
2022-09-04T00:39:14.128Z,11.1
2022-09-04T00:42:09.239Z,11.1
2022-09-04T00:45:19.028Z,11
2022-09-04T00:48:09.247Z,11
2022-09-04T00:51:09.217Z,11
2022-09-04T00:54:09.353Z,11
2022-09-04T00:57:09.384Z,11.1
2022-09-04T01:00:09.185Z,11
2022-09-04T01:03:12.065Z,11
2022-09-04T01:06:09.921Z,11
2022-09-04T01:09:09.461Z,10.9
2022-09-04T01:12:09.263Z,10.8
2022-09-04T01:15:09.266Z,10.7
2022-09-04T01:18:09.253Z,10.8
2022-09-04T01:21:09.221Z,10.9
2022-09-04T01:24:09.169Z,10.8
2022-09-04T01:27:09.262Z,10.9
2022-09-04T01:30:09.272Z,10.8
2022-09-04T01:33:10.063Z,10.7
2022-09-04T01:36:09.588Z,10.6
2022-09-04T01:39:09.275Z,10.5
2022-09-04T01:42:09.297Z,10.6
2022-09-04T01:45:10.437Z,10.6
2022-09-04T01:48:09.221Z,10.6
2022-09-04T01:51:09.286Z,10.5
2022-09-04T01:54:09.213Z,10.3
2022-09-04T01:57:09.205Z,10.2
2022-09-04T02:00:09.173Z,10.1
2022-09-04T02:03:09.217Z,10.1
2022-09-04T02:06:09.184Z,10.1
2022-09-04T02:09:09.132Z,9.9
2022-09-04T02:12:15.850Z,9.8
2022-09-04T02:15:09.224Z,9.8
2022-09-04T02:18:09.487Z,9.8
2022-09-04T02:21:09.231Z,9.7
2022-09-04T02:24:09.217Z,9.7
2022-09-04T02:27:09.173Z,9.8
2022-09-04T02:30:09.194Z,9.8
2022-09-04T02:33:09.150Z,9.7
2022-09-04T02:36:09.170Z,9.6
2022-09-04T02:39:09.185Z,9.6
2022-09-04T02:42:09.231Z,9.5
2022-09-04T02:45:09.231Z,9.4
2022-09-04T02:48:09.151Z,9.4
2022-09-04T02:51:09.191Z,9.4
2022-09-04T02:54:09.204Z,9.3
2022-09-04T02:57:09.193Z,9.3
2022-09-04T03:00:09.224Z,9.3
2022-09-04T03:03:09.214Z,9.3
2022-09-04T03:06:10.679Z,9.4
2022-09-04T03:09:11.870Z,9.4
2022-09-04T03:12:09.207Z,9.4
2022-09-04T03:15:09.246Z,9.5
2022-09-04T03:18:11.669Z,9.6
2022-09-04T03:21:09.211Z,9.6
2022-09-04T03:24:09.181Z,9.7
2022-09-04T03:27:09.204Z,9.6
2022-09-04T03:30:09.213Z,9.5
2022-09-04T03:33:10.302Z,9.6
2022-09-04T03:36:09.158Z,9.4
2022-09-04T03:39:09.191Z,9.4
2022-09-04T03:42:09.157Z,9.4
2022-09-04T03:45:09.193Z,9.4
2022-09-04T03:48:09.180Z,9.4
2022-09-04T03:51:09.169Z,9.4
2022-09-04T03:54:09.205Z,9.3
2022-09-04T03:57:09.158Z,9.3
2022-09-04T04:00:09.247Z,9.3
2022-09-04T04:03:09.553Z,9.3
2022-09-04T04:06:09.170Z,9.4
2022-09-04T04:09:09.244Z,9.5
2022-09-04T04:12:09.571Z,9.6
2022-09-04T04:15:09.179Z,9.7
2022-09-04T04:18:09.204Z,9.7
2022-09-04T04:21:09.870Z,9.6
2022-09-04T04:24:09.218Z,9.6
2022-09-04T04:27:10.097Z,9.4
2022-09-04T04:30:09.228Z,9.4
2022-09-04T04:33:09.220Z,9.2
2022-09-04T04:36:09.259Z,9.1
2022-09-04T04:39:09.269Z,9.1
2022-09-04T04:42:09.237Z,9.1
2022-09-04T04:45:09.280Z,9.2
2022-09-04T04:48:10.122Z,9.1
2022-09-04T04:51:09.188Z,9.2
2022-09-04T04:54:14.247Z,9.3
2022-09-04T04:57:09.280Z,9.4
2022-09-04T05:00:09.281Z,9.5
2022-09-04T05:03:09.724Z,9.6
2022-09-04T05:06:09.232Z,9.8
2022-09-04T05:09:09.238Z,9.8
2022-09-04T05:12:09.230Z,9.9
2022-09-04T05:15:09.239Z,9.9
2022-09-04T05:18:09.291Z,10.1
2022-09-04T05:21:11.245Z,10.1
2022-09-04T05:24:09.258Z,10.3
2022-09-04T05:27:09.249Z,10.4
2022-09-04T05:30:09.638Z,10.6
2022-09-04T05:33:09.200Z,10.7
2022-09-04T05:36:10.204Z,10.8
2022-09-04T05:39:12.001Z,11.1
2022-09-04T05:42:15.444Z,11.8
2022-09-04T05:45:09.202Z,12.8
2022-09-04T05:48:09.477Z,13.6
2022-09-04T05:51:09.354Z,14.7
2022-09-04T05:54:09.793Z,15.4
2022-09-04T05:57:09.247Z,15.8
2022-09-04T06:00:09.349Z,16.2
2022-09-04T06:03:09.775Z,16.5
2022-09-04T06:06:09.247Z,16.9
2022-09-04T06:09:09.220Z,17.2
2022-09-04T06:12:09.202Z,17.5
2022-09-04T06:15:09.257Z,17.9
2022-09-04T06:18:09.212Z,17.9
2022-09-04T06:21:09.330Z,17.9
2022-09-04T06:24:09.231Z,17.9
2022-09-04T06:27:09.240Z,18
2022-09-04T06:30:09.284Z,18.4
2022-09-04T06:33:10.269Z,18.6
2022-09-04T06:36:09.225Z,19.1
2022-09-04T06:39:09.234Z,19.6
2022-09-04T06:42:09.206Z,19.8
2022-09-04T06:45:11.439Z,19.6
2022-09-04T06:48:10.243Z,19.8
2022-09-04T06:51:10.049Z,20.4
2022-09-04T06:54:10.334Z,21.3
2022-09-04T06:57:09.264Z,20.9
2022-09-04T07:00:09.297Z,20.7
2022-09-04T07:03:09.371Z,20.9
2022-09-04T07:06:09.204Z,20.8
2022-09-04T07:09:09.349Z,21.5
2022-09-04T07:12:09.250Z,22
2022-09-04T07:15:09.316Z,22.1
2022-09-04T07:18:10.218Z,22.1
2022-09-04T07:21:09.247Z,22
2022-09-04T07:24:09.868Z,22.1
2022-09-04T07:27:09.285Z,22.3
2022-09-04T07:30:09.229Z,22.2
2022-09-04T07:33:09.687Z,22.2
2022-09-04T07:36:09.179Z,22.6
2022-09-04T07:39:09.224Z,22.4
2022-09-04T07:42:09.274Z,22.4
2022-09-04T07:45:09.198Z,22.1
2022-09-04T07:48:09.206Z,22.2
2022-09-04T07:51:14.348Z,22.2
2022-09-04T07:54:09.230Z,22.6
2022-09-04T07:57:09.313Z,23.1
2022-09-04T08:00:09.408Z,23.1
2022-09-04T08:03:09.202Z,23.1
2022-09-04T08:06:09.276Z,23
2022-09-04T08:09:09.284Z,23.2
2022-09-04T08:12:09.580Z,23.6
2022-09-04T08:15:09.277Z,23.3
2022-09-04T08:18:09.237Z,22.8
2022-09-04T08:21:09.307Z,22.6
2022-09-04T08:24:10.511Z,22.9
2022-09-04T08:27:09.279Z,23.2
2022-09-04T08:30:09.867Z,23.6
2022-09-04T08:33:09.290Z,23.5
2022-09-04T08:36:10.790Z,23.5
2022-09-04T08:39:16.062Z,23.7
2022-09-04T08:42:09.634Z,23.6
2022-09-04T08:45:09.262Z,23
2022-09-04T08:48:13.333Z,23.1
2022-09-04T08:51:09.755Z,23.5
2022-09-04T08:54:09.525Z,23.7
2022-09-04T08:57:09.200Z,23.7
2022-09-04T09:00:09.367Z,24.4
2022-09-04T09:03:09.200Z,24.6
2022-09-04T09:06:09.219Z,24.9
2022-09-04T09:09:09.293Z,25
2022-09-04T09:12:09.258Z,24.7
2022-09-04T09:15:09.220Z,24.4
2022-09-04T09:18:09.334Z,23.9
2022-09-04T09:21:09.240Z,24.4
2022-09-04T09:24:09.248Z,24.7
2022-09-04T09:27:09.189Z,24.7
2022-09-04T09:30:09.300Z,24.7
2022-09-04T09:33:09.412Z,24.7
2022-09-04T09:36:09.254Z,24.9
2022-09-04T09:39:09.309Z,25.1
2022-09-04T09:42:09.196Z,25.3
2022-09-04T09:45:09.279Z,24.9
2022-09-04T09:48:14.047Z,24.9
2022-09-04T09:51:09.223Z,25.1
2022-09-04T09:54:09.231Z,25.3
2022-09-04T09:57:09.772Z,25.3
2022-09-04T10:00:09.266Z,25.7
2022-09-04T10:03:09.166Z,25.9
2022-09-04T10:06:09.307Z,26.6
2022-09-04T10:09:13.853Z,26.8
2022-09-04T10:12:09.200Z,26.7
2022-09-04T10:15:09.246Z,26.7
2022-09-04T10:18:09.215Z,26.9
2022-09-04T10:21:09.208Z,25.9
2022-09-04T10:24:09.259Z,25.8
2022-09-04T10:27:09.259Z,26.4
2022-09-04T10:30:10.286Z,26.7
2022-09-04T10:33:15.004Z,26.8
2022-09-04T10:36:09.179Z,26.6
2022-09-04T10:39:09.602Z,26.4
2022-09-04T10:42:09.301Z,26.3
2022-09-04T10:45:09.241Z,26.4
2022-09-04T10:48:09.233Z,26.9
2022-09-04T10:51:09.247Z,27.2
2022-09-04T10:54:16.371Z,26.9
2022-09-04T10:57:09.624Z,26.9
2022-09-04T11:00:11.177Z,27.1
2022-09-04T11:03:09.373Z,26.9
2022-09-04T11:06:09.240Z,26.7
2022-09-04T11:09:09.295Z,27.1
2022-09-04T11:12:09.650Z,27.6
2022-09-04T11:15:09.330Z,27.7
2022-09-04T11:18:09.218Z,27.8
2022-09-04T11:21:09.229Z,27.9
2022-09-04T11:24:10.670Z,27.8
2022-09-04T11:27:16.763Z,27.7
2022-09-04T11:30:09.296Z,27.8
2022-09-04T11:33:10.571Z,27.9
2022-09-04T11:36:09.361Z,28.1
2022-09-04T11:39:09.231Z,27.9
2022-09-04T11:42:09.261Z,27.8
2022-09-04T11:45:09.378Z,27.7
2022-09-04T11:48:09.236Z,27.5
2022-09-04T11:51:09.204Z,27.6
2022-09-04T11:54:09.295Z,27.6
2022-09-04T11:57:09.259Z,28.3
2022-09-04T12:00:09.359Z,28.3
2022-09-04T12:03:09.223Z,28
2022-09-04T12:06:09.227Z,28.3
2022-09-04T12:09:09.248Z,28.2
2022-09-04T12:12:10.352Z,28.2
2022-09-04T12:15:18.863Z,28.1
2022-09-04T12:18:09.228Z,28.2
2022-09-04T12:21:09.265Z,28.1
2022-09-04T12:24:09.214Z,28
2022-09-04T12:27:09.230Z,27.8
2022-09-04T12:30:09.341Z,28.1
2022-09-04T12:33:14.813Z,28.6
2022-09-04T12:36:09.231Z,28.3
2022-09-04T12:39:09.229Z,28.3
2022-09-04T12:42:09.200Z,28.3
2022-09-04T12:45:09.287Z,28.5
2022-09-04T12:48:09.192Z,28.6
2022-09-04T12:51:09.315Z,28.6
2022-09-04T12:54:09.199Z,28.9
2022-09-04T12:57:09.305Z,28.9
2022-09-04T13:00:09.298Z,28.6
2022-09-04T13:03:15.433Z,28
2022-09-04T13:06:09.350Z,28.1
2022-09-04T13:09:09.235Z,28.3
2022-09-04T13:12:09.307Z,28.1
2022-09-04T13:15:09.253Z,28.3
2022-09-04T13:18:09.284Z,28.7
2022-09-04T13:21:09.212Z,28.7
2022-09-04T13:24:09.187Z,27.8
2022-09-04T13:27:12.177Z,27.7
2022-09-04T13:30:15.969Z,27.5
2022-09-04T13:33:09.201Z,27.4
2022-09-04T13:36:09.618Z,27.3
2022-09-04T13:39:11.018Z,27
2022-09-04T13:42:09.241Z,27
2022-09-04T13:45:10.627Z,27
2022-09-04T13:48:09.248Z,27.1
2022-09-04T13:51:19.726Z,27.3
2022-09-04T13:54:09.282Z,27.6
2022-09-04T13:57:09.200Z,27.6
2022-09-04T14:00:09.391Z,27.5
2022-09-04T14:03:09.197Z,27.4
2022-09-04T14:06:09.297Z,27.3
2022-09-04T14:09:14.805Z,27.4
2022-09-04T14:12:09.273Z,27.2
2022-09-04T14:15:09.221Z,27.2
2022-09-04T14:18:09.222Z,26.8
2022-09-04T14:21:14.357Z,26.8
2022-09-04T14:24:14.226Z,26.6
2022-09-04T14:27:09.213Z,26.6
2022-09-04T14:30:10.808Z,26.4
2022-09-04T14:33:39.895Z,26.3
2022-09-04T14:36:09.203Z,26.3
2022-09-04T14:39:11.226Z,26.2
2022-09-04T14:42:09.291Z,26.2
2022-09-04T14:45:09.427Z,26.4
2022-09-04T14:48:09.237Z,26.4
2022-09-04T14:51:09.265Z,26.4
2022-09-04T14:54:09.265Z,26.6
2022-09-04T14:57:09.195Z,26.5
2022-09-04T15:00:10.196Z,26.3
2022-09-04T15:03:09.326Z,26.3
2022-09-04T15:06:09.248Z,26.5
2022-09-04T15:09:09.848Z,26.4
2022-09-04T15:12:33.820Z,26.4
2022-09-04T15:15:09.222Z,26.2
2022-09-04T15:18:14.654Z,26
2022-09-04T15:21:10.758Z,25.9
2022-09-04T15:24:09.230Z,25.9
2022-09-04T15:27:09.181Z,25.8
2022-09-04T15:30:09.508Z,25.9
2022-09-04T15:33:09.259Z,25.9
2022-09-04T15:36:09.203Z,25.9
2022-09-04T15:39:09.255Z,25.9
2022-09-04T15:42:09.190Z,25.9
2022-09-04T15:45:14.110Z,25.9
2022-09-04T15:48:09.299Z,25.6
2022-09-04T15:51:10.240Z,25.6
2022-09-04T15:54:09.268Z,25.6
2022-09-04T15:57:09.182Z,25.5
2022-09-04T16:00:09.330Z,25.4
2022-09-04T16:03:09.537Z,25.3
2022-09-04T16:06:09.253Z,25.2
2022-09-04T16:09:09.295Z,25.1
2022-09-04T16:12:09.233Z,25
2022-09-04T16:15:11.473Z,25.1
2022-09-04T16:18:09.229Z,25.1
2022-09-04T16:21:10.704Z,25.1
2022-09-04T16:24:09.374Z,25.1
2022-09-04T16:27:09.702Z,25.1
2022-09-04T16:30:09.313Z,25
2022-09-04T16:33:29.888Z,25
2022-09-04T16:36:09.218Z,25
2022-09-04T16:39:09.211Z,25
2022-09-04T16:42:09.220Z,24.8
2022-09-04T16:45:09.276Z,24.8
2022-09-04T16:48:42.406Z,24.7
2022-09-04T16:51:47.888Z,24.7
2022-09-04T16:54:09.279Z,24.7
2022-09-04T16:57:22.130Z,24.6
2022-09-04T17:00:09.261Z,24.5
2022-09-04T17:03:10.149Z,24.4
2022-09-04T17:06:09.227Z,24.3
2022-09-04T17:09:09.871Z,24.3
2022-09-04T17:12:09.238Z,24.1
2022-09-04T17:15:09.203Z,24
2022-09-04T17:18:10.803Z,23.9
2022-09-04T17:30:31.520Z,23.4
2022-09-04T17:42:21.538Z,22.9
2022-09-04T17:45:09.232Z,22.8
2022-09-04T17:48:16.347Z,22.6
2022-09-04T17:51:09.222Z,22.6
2022-09-04T17:54:09.233Z,22.4
2022-09-04T17:57:09.257Z,22.2
2022-09-04T18:00:09.299Z,22.1
2022-09-04T18:03:09.614Z,22.1
2022-09-04T18:06:09.191Z,21.9
2022-09-04T18:09:09.230Z,21.8
2022-09-04T18:12:09.604Z,21.7
2022-09-04T18:15:43.473Z,21.6
2022-09-04T18:18:09.205Z,21.5
2022-09-04T18:21:09.214Z,21.4
2022-09-04T18:24:09.231Z,21.3
2022-09-04T18:27:09.174Z,21.2
2022-09-04T18:39:18.738Z,20.8
2022-09-04T18:51:32.381Z,20.6
2022-09-04T18:54:09.210Z,20.6
2022-09-04T18:57:15.186Z,20.6
2022-09-04T19:00:18.059Z,20.7
2022-09-04T19:03:09.154Z,20.7
2022-09-04T19:06:14.024Z,20.8
2022-09-04T19:09:09.161Z,20.8
2022-09-04T19:12:09.236Z,20.8
2022-09-04T19:15:09.181Z,20.8
2022-09-04T19:18:09.174Z,20.7
2022-09-04T19:21:19.275Z,20.6
2022-09-04T19:24:11.943Z,20.6
2022-09-04T19:27:32.574Z,20.5
2022-09-04T19:30:32.601Z,20.5
2022-09-04T19:33:09.243Z,20.5
2022-09-04T19:36:09.176Z,20.6
2022-09-04T19:48:09.907Z,20.4
2022-09-04T19:54:09.213Z,20.4
2022-09-04T19:57:42.541Z,20.4
2022-09-04T20:00:52.943Z,20.4
2022-09-04T20:03:09.581Z,20.3
2022-09-04T20:06:29.576Z,20.3
2022-09-04T20:09:09.198Z,20.3
2022-09-04T20:12:09.228Z,20.3
2022-09-04T20:15:09.217Z,20.3
2022-09-04T20:18:12.747Z,20.3
2022-09-04T20:21:09.278Z,20.3
2022-09-04T20:24:09.236Z,20.2
2022-09-04T20:27:09.519Z,20.1
2022-09-04T20:30:09.254Z,19.9
2022-09-04T20:33:09.190Z,19.8
2022-09-04T20:36:09.253Z,19.6
2022-09-04T20:39:09.163Z,19.4
2022-09-04T20:42:09.282Z,19.3
2022-09-04T20:54:10.646Z,18.4
2022-09-04T21:03:38.178Z,17.8
2022-09-04T21:06:16.229Z,17.6
2022-09-04T21:09:09.223Z,17.6
2022-09-04T21:12:09.190Z,17.4
2022-09-04T21:15:09.856Z,17.4
2022-09-04T21:18:09.163Z,17.4
2022-09-04T21:21:09.726Z,17.3
2022-09-04T21:24:18.845Z,17.3
2022-09-04T21:27:09.183Z,17.2
2022-09-04T21:30:09.189Z,17.2
2022-09-04T21:33:46.286Z,17.1
2022-09-04T21:36:36.118Z,16.9
2022-09-04T21:39:09.241Z,16.8
2022-09-04T21:42:23.679Z,16.8
2022-09-04T21:45:09.158Z,16.7
2022-09-04T21:48:25.834Z,16.7
2022-09-04T21:51:28.612Z,16.7
2022-09-04T22:03:12.218Z,16.6
2022-09-04T22:06:12.994Z,16.8
2022-09-04T22:15:09.254Z,16.8
2022-09-04T22:18:09.176Z,16.8
2022-09-04T22:21:09.189Z,16.8
2022-09-04T22:24:09.228Z,16.8
2022-09-04T22:27:09.220Z,16.6
2022-09-04T22:30:09.258Z,16.6
2022-09-04T22:33:09.136Z,16.6
2022-09-04T22:36:09.212Z,16.6
2022-09-04T22:39:09.199Z,16.5
2022-09-04T22:42:20.388Z,16.4
2022-09-04T22:45:18.963Z,16.5
2022-09-04T22:48:09.202Z,16.5
2022-09-04T22:51:09.131Z,16.5
2022-09-04T22:54:09.160Z,16.4
2022-09-04T22:57:09.232Z,16.4
2022-09-04T23:00:09.216Z,16.3
2022-09-04T23:03:37.518Z,16.2
2022-09-04T23:15:17.668Z,16.1
2022-09-04T23:27:12.332Z,15.9
2022-09-04T23:30:12.348Z,15.9
2022-09-04T23:33:09.139Z,15.8
2022-09-04T23:36:09.223Z,15.8
2022-09-04T23:39:09.172Z,15.7
2022-09-04T23:42:09.198Z,15.6
2022-09-04T23:45:09.222Z,15.6
2022-09-04T23:48:09.197Z,15.4
2022-09-04T23:51:09.213Z,15.5
2022-09-04T23:54:31.414Z,15.5
2022-09-04T23:57:32.843Z,15.4
